Terminal Aerodrome Forecast
Issued by NWS

Home | Current Version | Previous Version | Text Only | Print | Product List | Glossary On
Versions: 1 2 3 4 5 6 7 8 9 10 11 12 13 14 15 16
000
FTAK31 PAJN 260800 AAA
TAFAYA
TAF AMD
PAYA 260828Z 2608/2706 VRB04KT 3SM BR BKN010
      TEMPO 2608/2612 1SM BR OVC002
     FM261400 25006KT 5SM BR BKN010
     FM262000 22006KT P6SM SCT015 OVC025
     FM270300 27007KT P6SM SCT015 OVC025
      AMD LTD TO CLD VIS AND WIND 2608/2610=

USA.gov is the U.S. government's official web portal to all federal, state and local government web resources and services.